sensor_id;sensor_type;location;lat;lon;timestamp;P1;durP1;ratioP1;P2;durP2;ratioP2
20002;SDS011;10162;41.600;23.806;2022-08-25T00:05:17;6.03;;;2.70;;
20002;SDS011;10162;41.600;23.806;2022-08-25T00:07:43;4.23;;;2.60;;
20002;SDS011;10162;41.600;23.806;2022-08-25T00:13:58;7.17;;;3.00;;
20002;SDS011;10162;41.600;23.806;2022-08-25T00:16:26;4.23;;;3.07;;
20002;SDS011;10162;41.600;23.806;2022-08-25T00:18:54;10.80;;;3.90;;
20002;SDS011;10162;41.600;23.806;2022-08-25T00:25:09;5.30;;;3.43;;
20002;SDS011;10162;41.600;23.806;2022-08-25T00:27:36;7.93;;;4.40;;
20002;SDS011;10162;41.600;23.806;2022-08-25T00:33:49;7.47;;;4.17;;
20002;SDS011;10162;41.600;23.806;2022-08-25T00:36:18;6.73;;;3.67;;
20002;SDS011;10162;41.600;23.806;2022-08-25T00:38:45;11.03;;;4.50;;
20002;SDS011;10162;41.600;23.806;2022-08-25T00:45:02;4.60;;;3.70;;
20002;SDS011;10162;41.600;23.806;2022-08-25T00:47:30;5.40;;;3.57;;
20002;SDS011;10162;41.600;23.806;2022-08-25T00:53:44;6.73;;;4.33;;
20002;SDS011;10162;41.600;23.806;2022-08-25T00:56:10;4.67;;;3.73;;
20002;SDS011;10162;41.600;23.806;2022-08-25T00:58:38;8.40;;;3.53;;
20002;SDS011;10162;41.600;23.806;2022-08-25T01:04:53;9.47;;;4.17;;
20002;SDS011;10162;41.600;23.806;2022-08-25T01:07:19;7.90;;;3.87;;
20002;SDS011;10162;41.600;23.806;2022-08-25T01:13:36;7.73;;;3.93;;
20002;SDS011;10162;41.600;23.806;2022-08-25T01:16:16;5.77;;;4.00;;
20002;SDS011;10162;41.600;23.806;2022-08-25T01:18:52;10.80;;;4.60;;
20002;SDS011;10162;41.600;23.806;2022-08-25T01:25:16;7.30;;;4.20;;
20002;SDS011;10162;41.600;23.806;2022-08-25T01:28:03;6.90;;;4.30;;
20002;SDS011;10162;41.600;23.806;2022-08-25T01:34:17;7.27;;;5.33;;
20002;SDS011;10162;41.600;23.806;2022-08-25T01:36:43;9.27;;;4.77;;
20002;SDS011;10162;41.600;23.806;2022-08-25T01:39:10;4.93;;;3.93;;
20002;SDS011;10162;41.600;23.806;2022-08-25T01:44:30;7.67;;;5.27;;
20002;SDS011;10162;41.600;23.806;2022-08-25T01:46:57;11.23;;;5.73;;
20002;SDS011;10162;41.600;23.806;2022-08-25T01:53:12;8.20;;;5.47;;
20002;SDS011;10162;41.600;23.806;2022-08-25T01:55:42;8.37;;;5.00;;
20002;SDS011;10162;41.600;23.806;2022-08-25T01:58:20;8.20;;;4.70;;
20002;SDS011;10162;41.600;23.806;2022-08-25T02:03:47;8.53;;;5.30;;
20002;SDS011;10162;41.600;23.806;2022-08-25T02:06:15;11.10;;;5.60;;
20002;SDS011;10162;41.600;23.806;2022-08-25T02:08:59;10.10;;;5.87;;
20002;SDS011;10162;41.600;23.806;2022-08-25T02:15:28;11.40;;;5.83;;
20002;SDS011;10162;41.600;23.806;2022-08-25T02:17:55;7.57;;;5.17;;
20002;SDS011;10162;41.600;23.806;2022-08-25T02:24:09;10.20;;;4.90;;
20002;SDS011;10162;41.600;23.806;2022-08-25T02:26:36;7.53;;;5.63;;
20002;SDS011;10162;41.600;23.806;2022-08-25T02:29:02;8.13;;;5.37;;
20002;SDS011;10162;41.600;23.806;2022-08-25T02:34:05;10.33;;;5.63;;
20002;SDS011;10162;41.600;23.806;2022-08-25T02:36:32;8.13;;;5.37;;
20002;SDS011;10162;41.600;23.806;2022-08-25T02:38:58;9.67;;;5.43;;
20002;SDS011;10162;41.600;23.806;2022-08-25T02:45:11;7.43;;;5.60;;
20002;SDS011;10162;41.600;23.806;2022-08-25T02:47:38;8.20;;;5.10;;
20002;SDS011;10162;41.600;23.806;2022-08-25T02:53:51;10.37;;;5.20;;
20002;SDS011;10162;41.600;23.806;2022-08-25T02:56:17;9.93;;;4.97;;
20002;SDS011;10162;41.600;23.806;2022-08-25T02:58:45;7.53;;;5.27;;
20002;SDS011;10162;41.600;23.806;2022-08-25T03:04:58;8.00;;;5.63;;
20002;SDS011;10162;41.600;23.806;2022-08-25T03:07:24;7.83;;;5.00;;
20002;SDS011;10162;41.600;23.806;2022-08-25T03:09:56;8.67;;;5.23;;
20002;SDS011;10162;41.600;23.806;2022-08-25T03:12:21;9.50;;;5.47;;
20002;SDS011;10162;41.600;23.806;2022-08-25T03:14:47;8.97;;;5.37;;
20002;SDS011;10162;41.600;23.806;2022-08-25T03:17:13;10.37;;;6.00;;
20002;SDS011;10162;41.600;23.806;2022-08-25T03:23:26;11.40;;;5.77;;
20002;SDS011;10162;41.600;23.806;2022-08-25T03:25:53;8.93;;;6.13;;
20002;SDS011;10162;41.600;23.806;2022-08-25T03:28:37;9.97;;;5.10;;
20002;SDS011;10162;41.600;23.806;2022-08-25T03:31:21;11.87;;;7.00;;
20002;SDS011;10162;41.600;23.806;2022-08-25T03:33:50;6.97;;;5.23;;
20002;SDS011;10162;41.600;23.806;2022-08-25T03:36:16;9.50;;;4.83;;
20002;SDS011;10162;41.600;23.806;2022-08-25T03:38:42;7.63;;;5.50;;
20002;SDS011;10162;41.600;23.806;2022-08-25T03:44:05;7.20;;;4.83;;
20002;SDS011;10162;41.600;23.806;2022-08-25T03:46:40;6.27;;;4.43;;
20002;SDS011;10162;41.600;23.806;2022-08-25T03:49:09;6.17;;;4.73;;
20002;SDS011;10162;41.600;23.806;2022-08-25T03:51:39;7.07;;;4.57;;
20002;SDS011;10162;41.600;23.806;2022-08-25T03:54:08;12.60;;;4.60;;
20002;SDS011;10162;41.600;23.806;2022-08-25T03:56:35;4.20;;;3.70;;
20002;SDS011;10162;41.600;23.806;2022-08-25T03:59:02;6.63;;;4.20;;
20002;SDS011;10162;41.600;23.806;2022-08-25T04:04:25;7.33;;;3.97;;
20002;SDS011;10162;41.600;23.806;2022-08-25T04:06:51;8.43;;;3.90;;
20002;SDS011;10162;41.600;23.806;2022-08-25T04:09:17;4.90;;;3.50;;
20002;SDS011;10162;41.600;23.806;2022-08-25T04:11:43;9.10;;;4.23;;
20002;SDS011;10162;41.600;23.806;2022-08-25T04:14:09;7.70;;;3.87;;
20002;SDS011;10162;41.600;23.806;2022-08-25T04:16:34;7.33;;;3.83;;
20002;SDS011;10162;41.600;23.806;2022-08-25T04:19:02;6.07;;;3.43;;
20002;SDS011;10162;41.600;23.806;2022-08-25T04:24:45;6.50;;;4.17;;
20002;SDS011;10162;41.600;23.806;2022-08-25T04:27:11;5.70;;;3.40;;
20002;SDS011;10162;41.600;23.806;2022-08-25T04:33:23;7.47;;;3.73;;
20002;SDS011;10162;41.600;23.806;2022-08-25T04:35:49;6.13;;;3.50;;
20002;SDS011;10162;41.600;23.806;2022-08-25T04:38:15;4.10;;;3.50;;
20002;SDS011;10162;41.600;23.806;2022-08-25T04:43:44;10.43;;;3.83;;
20002;SDS011;10162;41.600;23.806;2022-08-25T04:46:12;5.00;;;4.30;;
20002;SDS011;10162;41.600;23.806;2022-08-25T04:48:40;8.00;;;3.60;;
20002;SDS011;10162;41.600;23.806;2022-08-25T04:54:53;7.93;;;3.43;;
20002;SDS011;10162;41.600;23.806;2022-08-25T04:57:19;5.87;;;3.77;;
20002;SDS011;10162;41.600;23.806;2022-08-25T05:02:28;9.13;;;4.20;;
20002;SDS011;10162;41.600;23.806;2022-08-25T05:04:54;7.43;;;4.00;;
20002;SDS011;10162;41.600;23.806;2022-08-25T05:07:20;4.33;;;3.50;;
20002;SDS011;10162;41.600;23.806;2022-08-25T05:09:57;12.23;;;4.07;;
20002;SDS011;10162;41.600;23.806;2022-08-25T05:12:23;5.23;;;3.53;;
20002;SDS011;10162;41.600;23.806;2022-08-25T05:14:50;6.43;;;3.43;;
20002;SDS011;10162;41.600;23.806;2022-08-25T05:17:17;4.77;;;3.40;;
20002;SDS011;10162;41.600;23.806;2022-08-25T05:19:46;6.40;;;3.63;;
20002;SDS011;10162;41.600;23.806;2022-08-25T05:22:12;4.37;;;3.20;;
20002;SDS011;10162;41.600;23.806;2022-08-25T05:24:38;11.47;;;4.40;;
20002;SDS011;10162;41.600;23.806;2022-08-25T05:27:04;6.43;;;3.87;;
20002;SDS011;10162;41.600;23.806;2022-08-25T05:32:00;4.40;;;3.27;;
20002;SDS011;10162;41.600;23.806;2022-08-25T05:34:25;5.50;;;3.40;;
20002;SDS011;10162;41.600;23.806;2022-08-25T05:36:51;3.73;;;3.30;;
20002;SDS011;10162;41.600;23.806;2022-08-25T05:39:17;5.93;;;3.30;;
20002;SDS011;10162;41.600;23.806;2022-08-25T05:41:43;8.63;;;3.37;;
20002;SDS011;10162;41.600;23.806;2022-08-25T05:44:08;5.37;;;3.50;;
20002;SDS011;10162;41.600;23.806;2022-08-25T05:46:36;8.10;;;4.60;;
20002;SDS011;10162;41.600;23.806;2022-08-25T05:49:02;4.40;;;3.87;;
20002;SDS011;10162;41.600;23.806;2022-08-25T05:51:30;4.93;;;3.60;;
20002;SDS011;10162;41.600;23.806;2022-08-25T05:53:56;6.00;;;3.63;;
20002;SDS011;10162;41.600;23.806;2022-08-25T05:56:21;6.77;;;3.63;;
20002;SDS011;10162;41.600;23.806;2022-08-25T05:58:47;4.13;;;3.00;;
20002;SDS011;10162;41.600;23.806;2022-08-25T06:01:31;6.20;;;3.57;;
20002;SDS011;10162;41.600;23.806;2022-08-25T06:04:15;5.87;;;3.40;;
20002;SDS011;10162;41.600;23.806;2022-08-25T06:06:42;7.07;;;3.47;;
20002;SDS011;10162;41.600;23.806;2022-08-25T06:09:08;4.90;;;2.50;;
20002;SDS011;10162;41.600;23.806;2022-08-25T06:11:38;5.63;;;3.40;;
20002;SDS011;10162;41.600;23.806;2022-08-25T06:14:04;3.83;;;2.92;;
20002;SDS011;10162;41.600;23.806;2022-08-25T06:16:31;5.10;;;2.47;;
20002;SDS011;10162;41.600;23.806;2022-08-25T06:18:57;4.38;;;2.78;;
20002;SDS011;10162;41.600;23.806;2022-08-25T06:21:24;5.07;;;3.00;;
20002;SDS011;10162;41.600;23.806;2022-08-25T06:23:50;4.72;;;2.47;;
20002;SDS011;10162;41.600;23.806;2022-08-25T06:26:15;4.07;;;2.45;;
20002;SDS011;10162;41.600;23.806;2022-08-25T06:28:41;4.57;;;2.50;;
20002;SDS011;10162;41.600;23.806;2022-08-25T06:34:00;3.90;;;2.42;;
20002;SDS011;10162;41.600;23.806;2022-08-25T06:36:26;3.17;;;2.90;;
20002;SDS011;10162;41.600;23.806;2022-08-25T06:38:52;2.45;;;2.03;;
20002;SDS011;10162;41.600;23.806;2022-08-25T06:44:24;7.43;;;2.65;;
20002;SDS011;10162;41.600;23.806;2022-08-25T06:46:52;6.05;;;3.28;;
20002;SDS011;10162;41.600;23.806;2022-08-25T06:49:20;11.10;;;10.00;;
20002;SDS011;10162;41.600;23.806;2022-08-25T06:51:45;6.15;;;3.55;;
20002;SDS011;10162;41.600;23.806;2022-08-25T06:54:11;5.00;;;3.40;;
20002;SDS011;10162;41.600;23.806;2022-08-25T06:56:38;5.43;;;3.92;;
20002;SDS011;10162;41.600;23.806;2022-08-25T06:59:05;4.40;;;2.90;;
20002;SDS011;10162;41.600;23.806;2022-08-25T07:04:27;3.58;;;2.58;;
20002;SDS011;10162;41.600;23.806;2022-08-25T07:06:53;6.97;;;3.00;;
20002;SDS011;10162;41.600;23.806;2022-08-25T07:09:19;5.18;;;2.58;;
20002;SDS011;10162;41.600;23.806;2022-08-25T07:11:45;6.75;;;2.78;;
20002;SDS011;10162;41.600;23.806;2022-08-25T07:14:11;3.85;;;2.40;;
20002;SDS011;10162;41.600;23.806;2022-08-25T07:16:39;4.25;;;2.63;;
20002;SDS011;10162;41.600;23.806;2022-08-25T07:19:05;3.13;;;2.55;;
20002;SDS011;10162;41.600;23.806;2022-08-25T07:21:36;6.00;;;2.92;;
20002;SDS011;10162;41.600;23.806;2022-08-25T07:24:05;5.93;;;2.80;;
20002;SDS011;10162;41.600;23.806;2022-08-25T07:26:36;5.25;;;3.25;;
20002;SDS011;10162;41.600;23.806;2022-08-25T07:29:12;8.43;;;3.22;;
20002;SDS011;10162;41.600;23.806;2022-08-25T07:31:40;7.22;;;3.40;;
20002;SDS011;10162;41.600;23.806;2022-08-25T07:34:06;7.30;;;3.30;;
20002;SDS011;10162;41.600;23.806;2022-08-25T07:36:50;7.95;;;3.67;;
20002;SDS011;10162;41.600;23.806;2022-08-25T07:39:16;9.15;;;3.97;;
20002;SDS011;10162;41.600;23.806;2022-08-25T07:41:42;9.90;;;3.80;;
20002;SDS011;10162;41.600;23.806;2022-08-25T07:44:09;7.53;;;3.72;;
20002;SDS011;10162;41.600;23.806;2022-08-25T07:46:37;6.53;;;3.50;;
20002;SDS011;10162;41.600;23.806;2022-08-25T07:49:03;11.65;;;4.00;;
20002;SDS011;10162;41.600;23.806;2022-08-25T07:54:55;14.10;;;3.50;;
20002;SDS011;10162;41.600;23.806;2022-08-25T07:57:22;7.28;;;3.63;;
20002;SDS011;10162;41.600;23.806;2022-08-25T07:59:51;9.70;;;3.47;;
20002;SDS011;10162;41.600;23.806;2022-08-25T08:02:17;15.30;;;3.70;;
20002;SDS011;10162;41.600;23.806;2022-08-25T08:04:43;10.70;;;4.35;;
20002;SDS011;10162;41.600;23.806;2022-08-25T08:07:09;7.82;;;3.55;;
20002;SDS011;10162;41.600;23.806;2022-08-25T08:12:06;12.60;;;3.97;;
20002;SDS011;10162;41.600;23.806;2022-08-25T08:14:33;8.55;;;4.00;;
20002;SDS011;10162;41.600;23.806;2022-08-25T08:16:59;10.00;;;4.35;;
20002;SDS011;10162;41.600;23.806;2022-08-25T08:23:18;10.57;;;4.32;;
20002;SDS011;10162;41.600;23.806;2022-08-25T08:25:44;9.15;;;3.30;;
20002;SDS011;10162;41.600;23.806;2022-08-25T08:28:10;14.02;;;3.65;;
20002;SDS011;10162;41.600;23.806;2022-08-25T08:34:29;16.77;;;4.53;;
20002;SDS011;10162;41.600;23.806;2022-08-25T08:36:56;28.20;;;5.70;;
20002;SDS011;10162;41.600;23.806;2022-08-25T08:39:22;20.17;;;5.20;;
20002;SDS011;10162;41.600;23.806;2022-08-25T08:56:25;21.30;;;5.85;;
20002;SDS011;10162;41.600;23.806;2022-08-25T08:58:58;26.65;;;5.85;;
20002;SDS011;10162;41.600;23.806;2022-08-25T09:05:16;17.15;;;5.50;;
20002;SDS011;10162;41.600;23.806;2022-08-25T09:07:49;17.60;;;5.45;;
20002;SDS011;10162;41.600;23.806;2022-08-25T09:16:58;17.38;;;5.90;;
20002;SDS011;10162;41.600;23.806;2022-08-25T09:23:32;27.60;;;6.00;;
20002;SDS011;10162;41.600;23.806;2022-08-25T09:26:48;19.95;;;5.88;;
20002;SDS011;10162;41.600;23.806;2022-08-25T09:31:38;21.35;;;6.25;;
20002;SDS011;10162;41.600;23.806;2022-08-25T09:34:16;18.52;;;7.32;;
20002;SDS011;10162;41.600;23.806;2022-08-25T09:36:48;19.80;;;6.07;;
20002;SDS011;10162;41.600;23.806;2022-08-25T09:39:17;21.40;;;6.40;;
20002;SDS011;10162;41.600;23.806;2022-08-25T09:41:49;20.65;;;6.13;;
20002;SDS011;10162;41.600;23.806;2022-08-25T09:54:57;23.02;;;6.63;;
20002;SDS011;10162;41.600;23.806;2022-08-25T09:57:36;18.90;;;6.00;;
20002;SDS011;10162;41.600;23.806;2022-08-25T10:04:02;20.33;;;5.53;;
20002;SDS011;10162;41.600;23.806;2022-08-25T10:06:32;20.98;;;6.32;;
20002;SDS011;10162;41.600;23.806;2022-08-25T10:09:04;20.95;;;6.63;;
20002;SDS011;10162;41.600;23.806;2022-08-25T10:15:21;20.35;;;5.50;;
20002;SDS011;10162;41.600;23.806;2022-08-25T10:17:50;21.55;;;6.28;;
20002;SDS011;10162;41.600;23.806;2022-08-25T10:24:03;29.65;;;6.45;;
20002;SDS011;10162;41.600;23.806;2022-08-25T10:31:55;30.17;;;6.45;;
20002;SDS011;10162;41.600;23.806;2022-08-25T10:44:03;29.08;;;6.80;;
20002;SDS011;10162;41.600;23.806;2022-08-25T10:47:28;22.83;;;6.50;;
20002;SDS011;10162;41.600;23.806;2022-08-25T10:56:21;23.02;;;6.53;;
20002;SDS011;10162;41.600;23.806;2022-08-25T11:02:21;22.67;;;6.72;;
20002;SDS011;10162;41.600;23.806;2022-08-25T11:05:08;23.98;;;6.50;;
20002;SDS011;10162;41.600;23.806;2022-08-25T11:07:43;24.70;;;6.90;;
20002;SDS011;10162;41.600;23.806;2022-08-25T11:14:47;18.40;;;5.70;;
20002;SDS011;10162;41.600;23.806;2022-08-25T11:26:36;29.55;;;6.88;;
20002;SDS011;10162;41.600;23.806;2022-08-25T11:32:53;24.40;;;6.55;;
20002;SDS011;10162;41.600;23.806;2022-08-25T11:35:37;21.10;;;6.40;;
20002;SDS011;10162;41.600;23.806;2022-08-25T11:45:10;19.55;;;6.10;;
20002;SDS011;10162;41.600;23.806;2022-08-25T11:48:05;23.52;;;6.32;;
20002;SDS011;10162;41.600;23.806;2022-08-25T11:57:22;26.67;;;6.68;;
20002;SDS011;10162;41.600;23.806;2022-08-25T12:06:14;21.85;;;6.20;;
20002;SDS011;10162;41.600;23.806;2022-08-25T12:17:43;18.00;;;5.82;;
20002;SDS011;10162;41.600;23.806;2022-08-25T12:26:35;25.63;;;6.57;;
20002;SDS011;10162;41.600;23.806;2022-08-25T12:29:15;15.82;;;6.15;;
20002;SDS011;10162;41.600;23.806;2022-08-25T12:37:14;16.52;;;5.20;;
20002;SDS011;10162;41.600;23.806;2022-08-25T12:43:31;20.15;;;4.75;;
20002;SDS011;10162;41.600;23.806;2022-08-25T12:52:00;29.67;;;5.78;;
20002;SDS011;10162;41.600;23.806;2022-08-25T13:04:10;19.67;;;5.40;;
20002;SDS011;10162;41.600;23.806;2022-08-25T13:16:30;26.13;;;4.65;;
20002;SDS011;10162;41.600;23.806;2022-08-25T13:18:58;24.10;;;5.30;;
20002;SDS011;10162;41.600;23.806;2022-08-25T13:25:17;22.55;;;4.93;;
20002;SDS011;10162;41.600;23.806;2022-08-25T13:27:55;27.05;;;5.75;;
20002;SDS011;10162;41.600;23.806;2022-08-25T13:30:26;19.38;;;4.80;;
20002;SDS011;10162;41.600;23.806;2022-08-25T13:32:56;21.77;;;4.80;;
20002;SDS011;10162;41.600;23.806;2022-08-25T13:35:27;27.63;;;4.68;;
20002;SDS011;10162;41.600;23.806;2022-08-25T13:38:17;22.63;;;4.93;;
20002;SDS011;10162;41.600;23.806;2022-08-25T13:40:44;19.42;;;4.68;;
20002;SDS011;10162;41.600;23.806;2022-08-25T13:43:11;15.77;;;4.45;;
20002;SDS011;10162;41.600;23.806;2022-08-25T13:45:40;15.68;;;4.68;;
20002;SDS011;10162;41.600;23.806;2022-08-25T13:48:12;24.63;;;5.22;;
20002;SDS011;10162;41.600;23.806;2022-08-25T13:53:21;13.75;;;4.47;;
20002;SDS011;10162;41.600;23.806;2022-08-25T13:55:50;21.80;;;4.35;;
20002;SDS011;10162;41.600;23.806;2022-08-25T13:58:19;16.52;;;4.57;;
20002;SDS011;10162;41.600;23.806;2022-08-25T14:03:51;17.23;;;5.13;;
20002;SDS011;10162;41.600;23.806;2022-08-25T14:06:21;25.45;;;5.00;;
20002;SDS011;10162;41.600;23.806;2022-08-25T14:16:52;16.05;;;4.95;;
20002;SDS011;10162;41.600;23.806;2022-08-25T14:19:24;20.77;;;5.18;;
20002;SDS011;10162;41.600;23.806;2022-08-25T14:21:50;13.60;;;4.85;;
20002;SDS011;10162;41.600;23.806;2022-08-25T14:24:19;15.98;;;4.30;;
20002;SDS011;10162;41.600;23.806;2022-08-25T14:26:47;22.23;;;4.88;;
20002;SDS011;10162;41.600;23.806;2022-08-25T14:29:14;18.88;;;5.53;;
20002;SDS011;10162;41.600;23.806;2022-08-25T14:31:42;22.85;;;6.07;;
20002;SDS011;10162;41.600;23.806;2022-08-25T14:34:14;16.98;;;5.00;;
20002;SDS011;10162;41.600;23.806;2022-08-25T14:36:42;10.20;;;5.15;;
20002;SDS011;10162;41.600;23.806;2022-08-25T14:39:09;20.58;;;5.47;;
20002;SDS011;10162;41.600;23.806;2022-08-25T14:41:36;15.18;;;4.75;;
20002;SDS011;10162;41.600;23.806;2022-08-25T14:44:04;23.58;;;5.95;;
20002;SDS011;10162;41.600;23.806;2022-08-25T14:46:32;22.25;;;5.05;;
20002;SDS011;10162;41.600;23.806;2022-08-25T14:49:02;22.70;;;4.85;;
20002;SDS011;10162;41.600;23.806;2022-08-25T14:51:48;21.60;;;4.78;;
20002;SDS011;10162;41.600;23.806;2022-08-25T14:54:15;16.02;;;5.70;;
20002;SDS011;10162;41.600;23.806;2022-08-25T14:56:43;22.77;;;4.65;;
20002;SDS011;10162;41.600;23.806;2022-08-25T14:59:11;17.63;;;5.18;;
20002;SDS011;10162;41.600;23.806;2022-08-25T15:01:36;27.20;;;5.57;;
20002;SDS011;10162;41.600;23.806;2022-08-25T15:04:07;22.60;;;5.30;;
20002;SDS011;10162;41.600;23.806;2022-08-25T15:06:42;19.88;;;5.63;;
20002;SDS011;10162;41.600;23.806;2022-08-25T15:09:12;17.77;;;5.25;;
20002;SDS011;10162;41.600;23.806;2022-08-25T15:11:44;23.67;;;5.28;;
20002;SDS011;10162;41.600;23.806;2022-08-25T15:14:14;19.95;;;4.63;;
20002;SDS011;10162;41.600;23.806;2022-08-25T15:16:48;20.95;;;6.20;;
20002;SDS011;10162;41.600;23.806;2022-08-25T15:19:22;15.27;;;5.20;;
20002;SDS011;10162;41.600;23.806;2022-08-25T15:21:59;21.52;;;5.38;;
20002;SDS011;10162;41.600;23.806;2022-08-25T15:24:26;18.48;;;4.78;;
20002;SDS011;10162;41.600;23.806;2022-08-25T15:26:53;20.80;;;5.78;;
20002;SDS011;10162;41.600;23.806;2022-08-25T15:29:25;19.83;;;5.45;;
20002;SDS011;10162;41.600;23.806;2022-08-25T15:31:54;24.10;;;5.78;;
20002;SDS011;10162;41.600;23.806;2022-08-25T15:34:20;17.30;;;4.50;;
20002;SDS011;10162;41.600;23.806;2022-08-25T15:36:47;20.48;;;5.28;;
20002;SDS011;10162;41.600;23.806;2022-08-25T15:39:14;23.85;;;5.10;;
20002;SDS011;10162;41.600;23.806;2022-08-25T15:41:40;19.20;;;5.32;;
20002;SDS011;10162;41.600;23.806;2022-08-25T15:44:07;17.38;;;4.93;;
20002;SDS011;10162;41.600;23.806;2022-08-25T15:46:35;15.68;;;4.95;;
20002;SDS011;10162;41.600;23.806;2022-08-25T15:49:02;19.40;;;5.22;;
20002;SDS011;10162;41.600;23.806;2022-08-25T15:51:44;14.98;;;4.63;;
20002;SDS011;10162;41.600;23.806;2022-08-25T15:54:10;16.23;;;4.53;;
20002;SDS011;10162;41.600;23.806;2022-08-25T15:56:38;22.30;;;5.10;;
20002;SDS011;10162;41.600;23.806;2022-08-25T15:59:05;15.98;;;4.60;;
20002;SDS011;10162;41.600;23.806;2022-08-25T16:01:40;12.88;;;4.10;;
20002;SDS011;10162;41.600;23.806;2022-08-25T16:04:06;15.80;;;4.25;;
20002;SDS011;10162;41.600;23.806;2022-08-25T16:06:32;15.63;;;4.30;;
20002;SDS011;10162;41.600;23.806;2022-08-25T16:08:59;18.75;;;4.40;;
20002;SDS011;10162;41.600;23.806;2022-08-25T16:11:30;11.40;;;4.22;;
20002;SDS011;10162;41.600;23.806;2022-08-25T16:13:59;12.52;;;4.38;;
20002;SDS011;10162;41.600;23.806;2022-08-25T16:16:27;23.17;;;4.63;;
20002;SDS011;10162;41.600;23.806;2022-08-25T16:18:54;14.90;;;4.25;;
20002;SDS011;10162;41.600;23.806;2022-08-25T16:23:55;21.95;;;4.50;;
20002;SDS011;10162;41.600;23.806;2022-08-25T16:26:24;11.68;;;3.90;;
20002;SDS011;10162;41.600;23.806;2022-08-25T16:28:50;24.73;;;4.70;;
20002;SDS011;10162;41.600;23.806;2022-08-25T16:31:32;15.23;;;4.07;;
20002;SDS011;10162;41.600;23.806;2022-08-25T16:33:58;13.63;;;3.72;;
20002;SDS011;10162;41.600;23.806;2022-08-25T16:36:25;15.65;;;4.18;;
20002;SDS011;10162;41.600;23.806;2022-08-25T16:38:52;14.07;;;4.47;;
20002;SDS011;10162;41.600;23.806;2022-08-25T16:45:05;22.25;;;3.95;;
20002;SDS011;10162;41.600;23.806;2022-08-25T16:47:33;14.90;;;4.70;;
20002;SDS011;10162;41.600;23.806;2022-08-25T16:52:47;13.05;;;4.88;;
20002;SDS011;10162;41.600;23.806;2022-08-25T16:55:31;15.27;;;4.38;;
20002;SDS011;10162;41.600;23.806;2022-08-25T16:57:58;14.90;;;4.03;;
20002;SDS011;10162;41.600;23.806;2022-08-25T17:03:01;17.98;;;4.70;;
20002;SDS011;10162;41.600;23.806;2022-08-25T17:19:30;22.00;;;5.97;;
20002;SDS011;10162;41.600;23.806;2022-08-25T17:25:45;16.35;;;7.30;;
20002;SDS011;10162;41.600;23.806;2022-08-25T17:28:11;19.75;;;6.30;;
20002;SDS011;10162;41.600;23.806;2022-08-25T17:34:24;15.13;;;5.35;;
20002;SDS011;10162;41.600;23.806;2022-08-25T17:36:50;15.95;;;6.07;;
20002;SDS011;10162;41.600;23.806;2022-08-25T17:39:17;11.65;;;5.60;;
20002;SDS011;10162;41.600;23.806;2022-08-25T17:45:31;16.00;;;3.90;;
20002;SDS011;10162;41.600;23.806;2022-08-25T17:47:57;17.23;;;5.40;;
20002;SDS011;10162;41.600;23.806;2022-08-25T17:54:10;9.35;;;4.10;;
20002;SDS011;10162;41.600;23.806;2022-08-25T17:56:35;10.82;;;4.53;;
20002;SDS011;10162;41.600;23.806;2022-08-25T17:59:01;14.55;;;4.72;;
20002;SDS011;10162;41.600;23.806;2022-08-25T18:04:10;11.25;;;4.47;;
20002;SDS011;10162;41.600;23.806;2022-08-25T18:06:36;7.35;;;4.65;;
20002;SDS011;10162;41.600;23.806;2022-08-25T18:09:02;12.95;;;5.25;;
20002;SDS011;10162;41.600;23.806;2022-08-25T18:15:17;16.92;;;5.18;;
20002;SDS011;10162;41.600;23.806;2022-08-25T18:17:44;12.38;;;5.30;;
20002;SDS011;10162;41.600;23.806;2022-08-25T18:23:57;13.60;;;5.30;;
20002;SDS011;10162;41.600;23.806;2022-08-25T18:26:23;9.45;;;4.80;;
20002;SDS011;10162;41.600;23.806;2022-08-25T18:28:50;14.27;;;5.57;;
20002;SDS011;10162;41.600;23.806;2022-08-25T18:35:03;9.93;;;5.30;;
20002;SDS011;10162;41.600;23.806;2022-08-25T18:37:29;19.33;;;5.40;;
20002;SDS011;10162;41.600;23.806;2022-08-25T18:43:04;15.02;;;5.13;;
20002;SDS011;10162;41.600;23.806;2022-08-25T18:45:32;15.05;;;5.50;;
20002;SDS011;10162;41.600;23.806;2022-08-25T18:48:04;12.45;;;5.38;;
20002;SDS011;10162;41.600;23.806;2022-08-25T18:53:21;15.15;;;5.18;;
20002;SDS011;10162;41.600;23.806;2022-08-25T18:55:49;11.32;;;5.35;;
20002;SDS011;10162;41.600;23.806;2022-08-25T18:58:16;11.73;;;5.43;;
20002;SDS011;10162;41.600;23.806;2022-08-25T19:03:40;10.73;;;4.85;;
20002;SDS011;10162;41.600;23.806;2022-08-25T19:06:07;14.77;;;5.07;;
20002;SDS011;10162;41.600;23.806;2022-08-25T19:08:33;16.27;;;5.55;;
20002;SDS011;10162;41.600;23.806;2022-08-25T19:13:49;12.05;;;4.80;;
20002;SDS011;10162;41.600;23.806;2022-08-25T19:16:16;17.92;;;5.07;;
20002;SDS011;10162;41.600;23.806;2022-08-25T19:18:54;12.50;;;5.20;;
20002;SDS011;10162;41.600;23.806;2022-08-25T19:25:07;11.40;;;5.30;;
20002;SDS011;10162;41.600;23.806;2022-08-25T19:27:34;19.10;;;4.70;;
20002;SDS011;10162;41.600;23.806;2022-08-25T19:33:12;17.97;;;5.23;;
20002;SDS011;10162;41.600;23.806;2022-08-25T19:35:42;15.67;;;5.17;;
20002;SDS011;10162;41.600;23.806;2022-08-25T19:38:13;14.20;;;4.80;;
20002;SDS011;10162;41.600;23.806;2022-08-25T19:40:48;9.73;;;5.20;;
20002;SDS011;10162;41.600;23.806;2022-08-25T19:43:15;9.20;;;4.90;;
20002;SDS011;10162;41.600;23.806;2022-08-25T19:45:42;11.33;;;5.27;;
20002;SDS011;10162;41.600;23.806;2022-08-25T19:48:10;17.33;;;6.07;;
20002;SDS011;10162;41.600;23.806;2022-08-25T19:53:26;21.17;;;9.40;;
20002;SDS011;10162;41.600;23.806;2022-08-25T19:55:51;12.27;;;4.90;;
20002;SDS011;10162;41.600;23.806;2022-08-25T19:58:18;16.42;;;5.00;;
20002;SDS011;10162;41.600;23.806;2022-08-25T20:04:31;14.98;;;5.15;;
20002;SDS011;10162;41.600;23.806;2022-08-25T20:06:56;9.90;;;4.63;;
20002;SDS011;10162;41.600;23.806;2022-08-25T20:09:23;12.35;;;4.65;;
20002;SDS011;10162;41.600;23.806;2022-08-25T20:15:37;12.27;;;4.67;;
20002;SDS011;10162;41.600;23.806;2022-08-25T20:18:03;10.67;;;4.93;;
20002;SDS011;10162;41.600;23.806;2022-08-25T20:24:15;12.07;;;4.40;;
20002;SDS011;10162;41.600;23.806;2022-08-25T20:27:00;10.10;;;5.10;;
20002;SDS011;10162;41.600;23.806;2022-08-25T20:29:26;13.63;;;5.70;;
20002;SDS011;10162;41.600;23.806;2022-08-25T20:35:39;8.80;;;4.50;;
20002;SDS011;10162;41.600;23.806;2022-08-25T20:38:05;14.97;;;5.40;;
20002;SDS011;10162;41.600;23.806;2022-08-25T20:43:19;11.50;;;5.10;;
20002;SDS011;10162;41.600;23.806;2022-08-25T20:45:45;15.57;;;4.63;;
20002;SDS011;10162;41.600;23.806;2022-08-25T20:48:11;12.05;;;5.13;;
20002;SDS011;10162;41.600;23.806;2022-08-25T20:53:38;12.10;;;5.00;;
20002;SDS011;10162;41.600;23.806;2022-08-25T20:56:10;13.27;;;4.80;;
20002;SDS011;10162;41.600;23.806;2022-08-25T20:58:39;10.20;;;4.70;;
20002;SDS011;10162;41.600;23.806;2022-08-25T21:04:54;11.97;;;4.60;;
20002;SDS011;10162;41.600;23.806;2022-08-25T21:07:20;15.60;;;5.20;;
20002;SDS011;10162;41.600;23.806;2022-08-25T21:09:46;9.33;;;4.47;;
20002;SDS011;10162;41.600;23.806;2022-08-25T21:12:13;9.20;;;4.43;;
20002;SDS011;10162;41.600;23.806;2022-08-25T21:14:39;14.70;;;4.83;;
20002;SDS011;10162;41.600;23.806;2022-08-25T21:17:06;8.73;;;4.40;;
20002;SDS011;10162;41.600;23.806;2022-08-25T21:19:35;13.63;;;4.40;;
20002;SDS011;10162;41.600;23.806;2022-08-25T21:24:31;11.83;;;3.90;;